sensor_id;sensor_type;location;lat;lon;timestamp;pressure;altitude;pressure_sealevel;temperature;humidity
84443;BME280;74681;0.000;0.000;2024-03-06T00:01:57;98685.88;;;23.08;58.45
84443;BME280;74681;0.000;0.000;2024-03-06T00:04:22;98685.88;;;23.08;58.69
84443;BME280;74681;0.000;0.000;2024-03-06T00:06:48;98690.53;;;23.08;58.30
84443;BME280;74681;0.000;0.000;2024-03-06T00:09:13;98691.63;;;23.07;58.39
84443;BME280;74681;0.000;0.000;2024-03-06T00:11:39;98694.38;;;23.07;58.61
84443;BME280;74681;0.000;0.000;2024-03-06T00:14:05;98688.06;;;23.06;58.50
84443;BME280;74681;0.000;0.000;2024-03-06T00:16:33;98692.44;;;23.07;58.58
84443;BME280;74681;0.000;0.000;2024-03-06T00:18:59;98690.81;;;23.06;58.26
84443;BME280;74681;0.000;0.000;2024-03-06T00:21:24;98677.13;;;23.06;58.54
84443;BME280;74681;0.000;0.000;2024-03-06T00:23:50;98673.06;;;23.04;58.45
84443;BME280;74681;0.000;0.000;2024-03-06T00:26:15;98673.06;;;23.04;58.44
84443;BME280;74681;0.000;0.000;2024-03-06T00:28:40;98672.78;;;23.05;58.30
84443;BME280;74681;0.000;0.000;2024-03-06T00:31:06;98679.38;;;23.04;58.42
84443;BME280;74681;0.000;0.000;2024-03-06T00:33:31;98675.81;;;23.04;58.43
84443;BME280;74681;0.000;0.000;2024-03-06T00:35:56;98681.28;;;23.04;58.55
84443;BME280;74681;0.000;0.000;2024-03-06T00:38:22;98679.69;;;23.03;58.49
84443;BME280;74681;0.000;0.000;2024-03-06T00:40:47;98687.91;;;23.03;58.49
84443;BME280;74681;0.000;0.000;2024-03-06T00:43:13;98691.41;;;23.03;58.17
84443;BME280;74681;0.000;0.000;2024-03-06T00:45:38;98686.25;;;23.02;58.28
84443;BME280;74681;0.000;0.000;2024-03-06T00:48:04;98698.03;;;23.02;58.41
84443;BME280;74681;0.000;0.000;2024-03-06T00:50:29;98692.03;;;23.00;58.35
84443;BME280;74681;0.000;0.000;2024-03-06T00:52:54;98697.22;;;23.02;58.31
84443;BME280;74681;0.000;0.000;2024-03-06T00:55:20;98688.19;;;23.01;58.35
84443;BME280;74681;0.000;0.000;2024-03-06T00:57:45;98692.03;;;23.00;58.36
84443;BME280;74681;0.000;0.000;2024-03-06T01:00:11;98696.72;;;23.00;58.32
84443;BME280;74681;0.000;0.000;2024-03-06T01:02:39;98694.75;;;23.00;58.41
84443;BME280;74681;0.000;0.000;2024-03-06T01:05:05;98697.50;;;23.00;58.37
84443;BME280;74681;0.000;0.000;2024-03-06T01:07:31;98696.72;;;23.00;58.42
84443;BME280;74681;0.000;0.000;2024-03-06T01:09:57;98698.63;;;22.99;58.05
84443;BME280;74681;0.000;0.000;2024-03-06T01:12:23;98701.66;;;22.98;58.22
84443;BME280;74681;0.000;0.000;2024-03-06T01:14:48;98696.19;;;22.98;58.25
84443;BME280;74681;0.000;0.000;2024-03-06T01:17:16;98694.28;;;22.98;58.37
84443;BME280;74681;0.000;0.000;2024-03-06T01:19:42;98696.19;;;22.98;58.12
84443;BME280;74681;0.000;0.000;2024-03-06T01:22:11;98700.88;;;22.97;58.07
84443;BME280;74681;0.000;0.000;2024-03-06T01:24:36;98698.44;;;22.96;58.21
84443;BME280;74681;0.000;0.000;2024-03-06T01:27:01;98700.06;;;22.97;57.94
84443;BME280;74681;0.000;0.000;2024-03-06T01:29:30;98699.25;;;22.96;58.04
84443;BME280;74681;0.000;0.000;2024-03-06T01:31:55;98698.44;;;22.96;57.83
84443;BME280;74681;0.000;0.000;2024-03-06T01:34:21;98698.44;;;22.96;58.10
84443;BME280;74681;0.000;0.000;2024-03-06T01:36:47;98694.88;;;22.95;57.93
84443;BME280;74681;0.000;0.000;2024-03-06T01:44:34;98693.28;;;22.94;58.18
84443;BME280;74681;0.000;0.000;2024-03-06T01:47:00;98692.47;;;22.94;58.02
84443;BME280;74681;0.000;0.000;2024-03-06T01:49:25;98692.47;;;22.94;58.19
84443;BME280;74681;0.000;0.000;2024-03-06T01:51:53;98690.53;;;22.94;57.96
84443;BME280;74681;0.000;0.000;2024-03-06T01:54:19;98697.94;;;22.94;57.80
84443;BME280;74681;0.000;0.000;2024-03-06T01:56:45;98697.94;;;22.94;58.23
84443;BME280;74681;0.000;0.000;2024-03-06T01:59:11;98700.97;;;22.92;58.10
84443;BME280;74681;0.000;0.000;2024-03-06T02:01:37;98697.44;;;22.92;58.15
84443;BME280;74681;0.000;0.000;2024-03-06T02:04:02;98700.97;;;22.92;58.11
84443;BME280;74681;0.000;0.000;2024-03-06T02:06:29;98697.44;;;22.92;58.04
84443;BME280;74681;0.000;0.000;2024-03-06T02:08:54;98702.09;;;22.91;57.95
84443;BME280;74681;0.000;0.000;2024-03-06T02:11:20;98706.75;;;22.91;58.21
84443;BME280;74681;0.000;0.000;2024-03-06T02:13:46;98703.19;;;22.90;58.42
84443;BME280;74681;0.000;0.000;2024-03-06T02:16:11;98699.66;;;22.90;57.87
84443;BME280;74681;0.000;0.000;2024-03-06T02:18:37;98697.72;;;22.90;57.91
84443;BME280;74681;0.000;0.000;2024-03-06T02:21:03;98698.53;;;22.91;58.20
84443;BME280;74681;0.000;0.000;2024-03-06T02:23:30;98696.09;;;22.89;57.93
84443;BME280;74681;0.000;0.000;2024-03-06T02:25:55;98690.63;;;22.89;58.23
84443;BME280;74681;0.000;0.000;2024-03-06T02:28:21;98692.56;;;22.89;57.86
84443;BME280;74681;0.000;0.000;2024-03-06T02:30:49;98689.00;;;22.88;57.81
84443;BME280;74681;0.000;0.000;2024-03-06T02:33:15;98690.94;;;22.88;57.91
84443;BME280;74681;0.000;0.000;2024-03-06T02:35:42;98687.38;;;22.87;57.90
84443;BME280;74681;0.000;0.000;2024-03-06T02:38:09;98701.88;;;22.88;57.88
84443;BME280;74681;0.000;0.000;2024-03-06T02:40:34;98701.88;;;22.88;57.98
84443;BME280;74681;0.000;0.000;2024-03-06T02:43:00;98699.47;;;22.86;58.13
84443;BME280;74681;0.000;0.000;2024-03-06T02:45:25;98694.78;;;22.87;58.05
84443;BME280;74681;0.000;0.000;2024-03-06T02:47:50;98694.00;;;22.86;57.83
84443;BME280;74681;0.000;0.000;2024-03-06T02:50:16;98686.56;;;22.87;58.07
84443;BME280;74681;0.000;0.000;2024-03-06T02:52:41;98684.97;;;22.86;57.92
84443;BME280;74681;0.000;0.000;2024-03-06T02:55:07;98684.97;;;22.86;58.11
84443;BME280;74681;0.000;0.000;2024-03-06T02:57:32;98684.13;;;22.85;57.76
84443;BME280;74681;0.000;0.000;2024-03-06T02:59:57;98687.97;;;22.84;58.08
84443;BME280;74681;0.000;0.000;2024-03-06T03:02:23;98697.81;;;22.85;57.86
84443;BME280;74681;0.000;0.000;2024-03-06T03:04:52;98687.16;;;22.84;57.97
84443;BME280;74681;0.000;0.000;2024-03-06T03:07:18;98689.91;;;22.84;58.01
84443;BME280;74681;0.000;0.000;2024-03-06T03:09:45;98691.84;;;22.83;57.79
84443;BME280;74681;0.000;0.000;2024-03-06T03:12:10;98689.91;;;22.84;57.91
84443;BME280;74681;0.000;0.000;2024-03-06T03:14:36;98691.84;;;22.83;57.77
84443;BME280;74681;0.000;0.000;2024-03-06T03:17:02;98696.50;;;22.83;57.79
84443;BME280;74681;0.000;0.000;2024-03-06T03:19:27;98695.69;;;22.82;58.05
84443;BME280;74681;0.000;0.000;2024-03-06T03:21:53;98695.69;;;22.82;57.78
84443;BME280;74681;0.000;0.000;2024-03-06T03:24:18;98696.81;;;22.81;58.06
84443;BME280;74681;0.000;0.000;2024-03-06T03:26:46;98692.97;;;22.82;57.83
84443;BME280;74681;0.000;0.000;2024-03-06T03:29:11;98700.66;;;22.80;57.91
84443;BME280;74681;0.000;0.000;2024-03-06T03:31:37;98697.94;;;22.80;57.89
84443;BME280;74681;0.000;0.000;2024-03-06T03:34:03;98699.53;;;22.81;58.05
84443;BME280;74681;0.000;0.000;2024-03-06T03:36:29;98703.41;;;22.80;57.81
84443;BME280;74681;0.000;0.000;2024-03-06T03:38:55;98700.97;;;22.79;57.90
84443;BME280;74681;0.000;0.000;2024-03-06T03:41:20;98701.78;;;22.79;57.80
84443;BME280;74681;0.000;0.000;2024-03-06T03:43:46;98707.25;;;22.79;58.02
84443;BME280;74681;0.000;0.000;2024-03-06T03:46:11;98696.31;;;22.79;57.89
84443;BME280;74681;0.000;0.000;2024-03-06T03:48:36;98707.56;;;22.78;57.83
84443;BME280;74681;0.000;0.000;2024-03-06T03:51:02;98702.88;;;22.78;58.15
84443;BME280;74681;0.000;0.000;2024-03-06T03:53:32;98713.03;;;22.78;57.74
84443;BME280;74681;0.000;0.000;2024-03-06T03:55:57;98713.03;;;22.78;58.06
84443;BME280;74681;0.000;0.000;2024-03-06T03:58:23;98714.16;;;22.77;57.84
84443;BME280;74681;0.000;0.000;2024-03-06T04:00:48;98719.63;;;22.77;58.64
84443;BME280;74681;0.000;0.000;2024-03-06T04:03:17;98719.00;;;22.80;59.29
84443;BME280;74681;0.000;0.000;2024-03-06T04:05:42;98731.28;;;22.82;59.44
84443;BME280;74681;0.000;0.000;2024-03-06T04:08:08;98729.38;;;22.83;59.53
84443;BME280;74681;0.000;0.000;2024-03-06T04:10:33;98725.81;;;22.82;58.69
84443;BME280;74681;0.000;0.000;2024-03-06T04:12:58;98728.88;;;22.81;59.25
84443;BME280;74681;0.000;0.000;2024-03-06T04:15:25;98734.53;;;22.84;60.09
84443;BME280;74681;0.000;0.000;2024-03-06T04:17:50;98735.34;;;22.85;60.05
84443;BME280;74681;0.000;0.000;2024-03-06T04:20:16;98737.78;;;22.86;60.16
84443;BME280;74681;0.000;0.000;2024-03-06T04:22:41;98741.31;;;22.87;60.10
84443;BME280;74681;0.000;0.000;2024-03-06T04:25:06;98733.91;;;22.87;60.53
84443;BME280;74681;0.000;0.000;2024-03-06T04:27:32;98731.50;;;22.86;60.48
84443;BME280;74681;0.000;0.000;2024-03-06T04:29:58;98737.78;;;22.86;60.63
84443;BME280;74681;0.000;0.000;2024-03-06T04:32:27;98742.44;;;22.86;60.71
84443;BME280;74681;0.000;0.000;2024-03-06T04:34:52;98742.13;;;22.87;61.11
84443;BME280;74681;0.000;0.000;2024-03-06T04:37:19;98741.03;;;22.88;61.01
84443;BME280;74681;0.000;0.000;2024-03-06T04:39:44;98746.50;;;22.88;61.32
84443;BME280;74681;0.000;0.000;2024-03-06T04:42:09;98746.00;;;22.86;61.36
84443;BME280;74681;0.000;0.000;2024-03-06T04:44:35;98752.25;;;22.87;61.52
84443;BME280;74681;0.000;0.000;2024-03-06T04:47:01;98744.38;;;22.85;61.59
84443;BME280;74681;0.000;0.000;2024-03-06T04:49:26;98748.75;;;22.86;61.71
84443;BME280;74681;0.000;0.000;2024-03-06T04:51:52;98751.97;;;22.88;62.47
84443;BME280;74681;0.000;0.000;2024-03-06T04:54:17;98751.88;;;22.93;63.01
84443;BME280;74681;0.000;0.000;2024-03-06T04:56:42;98745.78;;;22.96;63.53
84443;BME280;74681;0.000;0.000;2024-03-06T04:59:08;98760.59;;;22.95;63.33
84443;BME280;74681;0.000;0.000;2024-03-06T05:01:33;98759.00;;;22.94;63.62
84443;BME280;74681;0.000;0.000;2024-03-06T05:03:59;98752.19;;;22.92;63.58
84443;BME280;74681;0.000;0.000;2024-03-06T05:06:24;98760.91;;;22.94;63.82
84443;BME280;74681;0.000;0.000;2024-03-06T05:08:53;98757.66;;;22.92;63.67
84443;BME280;74681;0.000;0.000;2024-03-06T05:11:18;98764.25;;;22.91;63.36
84443;BME280;74681;0.000;0.000;2024-03-06T05:13:43;98755.22;;;22.90;63.45
84443;BME280;74681;0.000;0.000;2024-03-06T05:16:09;98760.69;;;22.90;63.35
84443;BME280;74681;0.000;0.000;2024-03-06T05:18:34;98757.97;;;22.90;63.39
84443;BME280;74681;0.000;0.000;2024-03-06T05:20:59;98759.59;;;22.91;63.39
84443;BME280;74681;0.000;0.000;2024-03-06T05:23:25;98767.00;;;22.91;63.76
84443;BME280;74681;0.000;0.000;2024-03-06T05:25:50;98765.06;;;22.91;63.60
84443;BME280;74681;0.000;0.000;2024-03-06T05:28:16;98755.72;;;22.92;63.39
84443;BME280;74681;0.000;0.000;2024-03-06T05:30:41;98759.59;;;22.91;63.53
84443;BME280;74681;0.000;0.000;2024-03-06T05:33:06;98767.50;;;22.93;63.88
84443;BME280;74681;0.000;0.000;2024-03-06T05:35:31;98758.38;;;22.97;63.94
84443;BME280;74681;0.000;0.000;2024-03-06T05:37:57;98763.53;;;22.99;64.16
84443;BME280;74681;0.000;0.000;2024-03-06T05:40:22;98762.44;;;23.00;63.90
84443;BME280;74681;0.000;0.000;2024-03-06T05:42:48;98769.84;;;22.99;64.06
84443;BME280;74681;0.000;0.000;2024-03-06T05:45:14;98772.25;;;23.01;63.79
84443;BME280;74681;0.000;0.000;2024-03-06T05:47:40;98770.66;;;23.00;62.98
84443;BME280;74681;0.000;0.000;2024-03-06T05:50:05;98774.28;;;22.95;62.14
84443;BME280;74681;0.000;0.000;2024-03-06T05:52:31;98772.69;;;22.94;61.81
84443;BME280;74681;0.000;0.000;2024-03-06T05:54:56;98778.16;;;22.94;61.19
84443;BME280;74681;0.000;0.000;2024-03-06T05:57:22;98788.56;;;22.92;61.13
84443;BME280;74681;0.000;0.000;2024-03-06T05:59:47;98785.06;;;22.92;60.64
84443;BME280;74681;0.000;0.000;2024-03-06T06:02:13;98788.88;;;22.91;60.39
84443;BME280;74681;0.000;0.000;2024-03-06T06:04:41;98786.44;;;22.89;60.35
84443;BME280;74681;0.000;0.000;2024-03-06T06:07:07;98786.44;;;22.89;60.02
84443;BME280;74681;0.000;0.000;2024-03-06T06:09:32;98784.84;;;22.88;60.14
84443;BME280;74681;0.000;0.000;2024-03-06T06:11:58;98792.53;;;22.86;59.66
84443;BME280;74681;0.000;0.000;2024-03-06T06:14:23;98784.63;;;22.85;59.77
84443;BME280;74681;0.000;0.000;2024-03-06T06:16:49;98798.63;;;22.83;59.90
84443;BME280;74681;0.000;0.000;2024-03-06T06:19:15;98797.00;;;22.82;59.76
84443;BME280;74681;0.000;0.000;2024-03-06T06:21:41;98795.34;;;22.81;59.40
84443;BME280;74681;0.000;0.000;2024-03-06T06:24:07;98799.22;;;22.80;59.89
84443;BME280;74681;0.000;0.000;2024-03-06T06:26:33;98800.31;;;22.79;58.90
84443;BME280;74681;0.000;0.000;2024-03-06T06:28:59;98795.94;;;22.78;59.27
84443;BME280;74681;0.000;0.000;2024-03-06T06:31:24;98800.63;;;22.78;60.02
84443;BME280;74681;0.000;0.000;2024-03-06T06:33:51;98804.97;;;22.79;60.42
84443;BME280;74681;0.000;0.000;2024-03-06T06:36:17;98803.38;;;22.78;60.41
84443;BME280;74681;0.000;0.000;2024-03-06T06:38:43;98808.03;;;22.77;60.20
84443;BME280;74681;0.000;0.000;2024-03-06T06:41:09;98815.44;;;22.77;60.01
84443;BME280;74681;0.000;0.000;2024-03-06T06:43:34;98812.19;;;22.75;60.35
84443;BME280;74681;0.000;0.000;2024-03-06T06:45:59;98811.38;;;22.74;60.18
84443;BME280;74681;0.000;0.000;2024-03-06T06:48:26;98822.31;;;22.74;59.97
84443;BME280;74681;0.000;0.000;2024-03-06T06:50:52;98816.03;;;22.74;59.97
84443;BME280;74681;0.000;0.000;2024-03-06T06:53:17;98822.31;;;22.74;60.08
84443;BME280;74681;0.000;0.000;2024-03-06T06:55:42;98820.69;;;22.73;60.08
84443;BME280;74681;0.000;0.000;2024-03-06T07:00:33;98820.19;;;22.71;60.08
84443;BME280;74681;0.000;0.000;2024-03-06T07:02:59;98822.09;;;22.71;59.96
84443;BME280;74681;0.000;0.000;2024-03-06T07:05:25;98815.00;;;22.70;59.91
84443;BME280;74681;0.000;0.000;2024-03-06T07:07:51;98826.75;;;22.70;59.81
84443;BME280;74681;0.000;0.000;2024-03-06T07:10:18;98819.66;;;22.69;59.92
84443;BME280;74681;0.000;0.000;2024-03-06T07:12:44;98816.13;;;22.69;59.74
84443;BME280;74681;0.000;0.000;2024-03-06T07:15:09;98818.84;;;22.69;59.74
84443;BME280;74681;0.000;0.000;2024-03-06T07:17:34;98813.38;;;22.69;59.63
84443;BME280;74681;0.000;0.000;2024-03-06T07:20:00;98813.38;;;22.69;59.80
84443;BME280;74681;0.000;0.000;2024-03-06T07:22:25;98812.56;;;22.68;59.66
84443;BME280;74681;0.000;0.000;2024-03-06T07:24:51;98814.47;;;22.68;59.85
84443;BME280;74681;0.000;0.000;2024-03-06T07:27:16;98815.63;;;22.67;59.58
84443;BME280;74681;0.000;0.000;2024-03-06T07:29:42;98821.88;;;22.67;59.62
84443;BME280;74681;0.000;0.000;2024-03-06T07:32:07;98823.00;;;22.66;59.82
84443;BME280;74681;0.000;0.000;2024-03-06T07:34:32;98827.66;;;22.66;59.48
84443;BME280;74681;0.000;0.000;2024-03-06T07:36:58;98821.38;;;22.65;59.48
84443;BME280;74681;0.000;0.000;2024-03-06T07:39:24;98821.38;;;22.65;59.50
84443;BME280;74681;0.000;0.000;2024-03-06T07:41:50;98819.44;;;22.66;59.43
84443;BME280;74681;0.000;0.000;2024-03-06T07:44:15;98828.75;;;22.65;59.73
84443;BME280;74681;0.000;0.000;2024-03-06T07:46:41;98835.06;;;22.65;59.37
84443;BME280;74681;0.000;0.000;2024-03-06T07:49:06;98828.75;;;22.65;59.61
84443;BME280;74681;0.000;0.000;2024-03-06T07:51:32;98836.16;;;22.64;59.57
84443;BME280;74681;0.000;0.000;2024-03-06T07:53:57;98827.94;;;22.64;59.48
84443;BME280;74681;0.000;0.000;2024-03-06T07:56:26;98830.69;;;22.64;59.44
84443;BME280;74681;0.000;0.000;2024-03-06T07:58:52;98834.25;;;22.65;59.60
84443;BME280;74681;0.000;0.000;2024-03-06T08:01:18;98827.16;;;22.64;59.59
84443;BME280;74681;0.000;0.000;2024-03-06T08:03:44;98829.03;;;22.63;59.57
84443;BME280;74681;0.000;0.000;2024-03-06T08:06:09;98831.78;;;22.63;59.40
84443;BME280;74681;0.000;0.000;2024-03-06T08:08:35;98836.16;;;22.64;59.62
84443;BME280;74681;0.000;0.000;2024-03-06T08:11:01;98842.72;;;22.63;59.20
84443;BME280;74681;0.000;0.000;2024-03-06T08:13:26;98838.34;;;22.62;59.58
84443;BME280;74681;0.000;0.000;2024-03-06T08:15:52;98842.72;;;22.63;59.58
84443;BME280;74681;0.000;0.000;2024-03-06T08:18:18;98842.72;;;22.63;59.38
84443;BME280;74681;0.000;0.000;2024-03-06T08:20:43;98837.25;;;22.63;59.28
84443;BME280;74681;0.000;0.000;2024-03-06T08:23:08;98834.53;;;22.63;59.29
84443;BME280;74681;0.000;0.000;2024-03-06T08:25:35;98831.78;;;22.63;59.37
84443;BME280;74681;0.000;0.000;2024-03-06T08:28:00;98839.16;;;22.62;59.53
84443;BME280;74681;0.000;0.000;2024-03-06T08:30:26;98838.34;;;22.62;57.51
84443;BME280;74681;0.000;0.000;2024-03-06T08:32:51;98840.28;;;22.61;58.15
84443;BME280;74681;0.000;0.000;2024-03-06T08:35:16;98848.47;;;22.61;58.72
84443;BME280;74681;0.000;0.000;2024-03-06T08:37:43;98841.41;;;22.60;58.37
84443;BME280;74681;0.000;0.000;2024-03-06T08:40:09;98842.50;;;22.59;58.64
84443;BME280;74681;0.000;0.000;2024-03-06T08:42:42;98849.91;;;22.59;58.62
84443;BME280;74681;0.000;0.000;2024-03-06T08:45:08;98846.88;;;22.60;58.60
84443;BME280;74681;0.000;0.000;2024-03-06T08:47:34;98847.16;;;22.59;58.60
84443;BME280;74681;0.000;0.000;2024-03-06T08:49:59;98847.97;;;22.59;58.58
84443;BME280;74681;0.000;0.000;2024-03-06T08:52:24;98853.44;;;22.59;58.86
84443;BME280;74681;0.000;0.000;2024-03-06T08:54:50;98853.44;;;22.59;58.63
84443;BME280;74681;0.000;0.000;2024-03-06T08:57:15;98850.72;;;22.59;58.80
84443;BME280;74681;0.000;0.000;2024-03-06T08:59:41;98855.09;;;22.60;58.63
84443;BME280;74681;0.000;0.000;2024-03-06T09:02:12;98851.53;;;22.60;58.77
84443;BME280;74681;0.000;0.000;2024-03-06T09:04:38;98847.97;;;22.59;58.76
84443;BME280;74681;0.000;0.000;2024-03-06T09:07:04;98845.25;;;22.59;58.70
84443;BME280;74681;0.000;0.000;2024-03-06T09:09:29;98848.78;;;22.60;58.81
84443;BME280;74681;0.000;0.000;2024-03-06T09:11:54;98846.06;;;22.60;58.75
84443;BME280;74681;0.000;0.000;2024-03-06T09:14:19;98850.72;;;22.59;58.55
84443;BME280;74681;0.000;0.000;2024-03-06T09:16:45;98844.41;;;22.59;58.50
84443;BME280;74681;0.000;0.000;2024-03-06T09:19:11;98846.34;;;22.58;58.53
84443;BME280;74681;0.000;0.000;2024-03-06T09:21:36;98851.53;;;22.60;58.86
84443;BME280;74681;0.000;0.000;2024-03-06T09:24:02;98845.25;;;22.59;58.60
84443;BME280;74681;0.000;0.000;2024-03-06T09:26:27;98855.09;;;22.60;58.65
84443;BME280;74681;0.000;0.000;2024-03-06T09:28:53;98855.09;;;22.60;58.59
84443;BME280;74681;0.000;0.000;2024-03-06T09:31:18;98850.72;;;22.59;58.69
84443;BME280;74681;0.000;0.000;2024-03-06T09:33:43;98845.25;;;22.59;58.57
84443;BME280;74681;0.000;0.000;2024-03-06T09:36:11;98849.63;;;22.60;58.69
84443;BME280;74681;0.000;0.000;2024-03-06T09:38:38;98845.25;;;22.59;58.56
84443;BME280;74681;0.000;0.000;2024-03-06T09:41:05;98852.34;;;22.60;58.78
84443;BME280;74681;0.000;0.000;2024-03-06T09:43:32;98843.31;;;22.60;58.41
84443;BME280;74681;0.000;0.000;2024-03-06T09:45:57;98844.97;;;22.61;58.42
84443;BME280;74681;0.000;0.000;2024-03-06T09:48:22;98850.72;;;22.59;58.57
84443;BME280;74681;0.000;0.000;2024-03-06T09:50:48;98842.22;;;22.61;58.50
84443;BME280;74681;0.000;0.000;2024-03-06T09:53:15;98841.41;;;22.60;58.44
84443;BME280;74681;0.000;0.000;2024-03-06T09:55:41;98844.97;;;22.61;58.62
84443;BME280;74681;0.000;0.000;2024-03-06T09:58:07;98844.97;;;22.61;58.42
84443;BME280;74681;0.000;0.000;2024-03-06T10:00:34;98843.31;;;22.60;58.47
84443;BME280;74681;0.000;0.000;2024-03-06T10:03:00;98842.50;;;22.59;58.04
84443;BME280;74681;0.000;0.000;2024-03-06T10:05:26;98846.34;;;22.58;58.00
84443;BME280;74681;0.000;0.000;2024-03-06T10:07:52;98842.81;;;22.58;58.10
84443;BME280;74681;0.000;0.000;2024-03-06T10:10:18;98852.63;;;22.59;57.94
84443;BME280;74681;0.000;0.000;2024-03-06T10:12:46;98849.06;;;22.58;57.98
84443;BME280;74681;0.000;0.000;2024-03-06T10:15:15;98851.03;;;22.58;58.14
84443;BME280;74681;0.000;0.000;2024-03-06T10:17:40;98851.81;;;22.58;58.07
84443;BME280;74681;0.000;0.000;2024-03-06T10:22:51;98841.69;;;22.59;57.89
84443;BME280;74681;0.000;0.000;2024-03-06T10:25:20;98853.44;;;22.59;57.89
84443;BME280;74681;0.000;0.000;2024-03-06T10:30:32;98843.31;;;22.60;57.92
84443;BME280;74681;0.000;0.000;2024-03-06T10:32:58;98838.94;;;22.59;58.09
84443;BME280;74681;0.000;0.000;2024-03-06T10:35:24;98837.03;;;22.59;58.14
84443;BME280;74681;0.000;0.000;2024-03-06T10:37:51;98840.88;;;22.58;58.00
84443;BME280;74681;0.000;0.000;2024-03-06T10:40:18;98833.47;;;22.59;57.81
84443;BME280;74681;0.000;0.000;2024-03-06T10:42:44;98835.41;;;22.58;57.87
84443;BME280;74681;0.000;0.000;2024-03-06T10:45:10;98822.53;;;22.59;57.77
84443;BME280;74681;0.000;0.000;2024-03-06T10:47:38;98826.09;;;22.59;57.81
84443;BME280;74681;0.000;0.000;2024-03-06T10:50:05;98818.97;;;22.58;57.74
84443;BME280;74681;0.000;0.000;2024-03-06T10:52:35;98820.63;;;22.59;57.95
84443;BME280;74681;0.000;0.000;2024-03-06T10:55:02;98819.50;;;22.60;57.80
84443;BME280;74681;0.000;0.000;2024-03-06T10:57:28;98806.94;;;22.59;57.92
84443;BME280;74681;0.000;0.000;2024-03-06T10:59:54;98809.38;;;22.61;57.90
84443;BME280;74681;0.000;0.000;2024-03-06T11:02:20;98800.34;;;22.60;58.03
84443;BME280;74681;0.000;0.000;2024-03-06T11:04:48;98797.63;;;22.60;57.92
84443;BME280;74681;0.000;0.000;2024-03-06T11:07:14;98789.41;;;22.60;58.00
84443;BME280;74681;0.000;0.000;2024-03-06T11:09:39;98801.19;;;22.61;57.68
84443;BME280;74681;0.000;0.000;2024-03-06T11:12:05;98795.69;;;22.61;58.03
84443;BME280;74681;0.000;0.000;2024-03-06T11:14:32;98793.75;;;22.61;57.93
84443;BME280;74681;0.000;0.000;2024-03-06T11:17:08;98779.28;;;22.61;57.65
84443;BME280;74681;0.000;0.000;2024-03-06T11:22:17;98781.19;;;22.60;57.70
84443;BME280;74681;0.000;0.000;2024-03-06T11:24:42;98779.28;;;22.61;57.87
84443;BME280;74681;0.000;0.000;2024-03-06T11:27:07;98781.19;;;22.60;57.73
84443;BME280;74681;0.000;0.000;2024-03-06T11:32:18;98768.63;;;22.59;57.62
84443;BME280;74681;0.000;0.000;2024-03-06T11:34:44;98771.34;;;22.59;57.61
84443;BME280;74681;0.000;0.000;2024-03-06T11:37:09;98774.09;;;22.59;57.63
84443;BME280;74681;0.000;0.000;2024-03-06T11:39:35;98766.97;;;22.58;57.72
84443;BME280;74681;0.000;0.000;2024-03-06T11:42:02;98768.63;;;22.59;57.71
84443;BME280;74681;0.000;0.000;2024-03-06T11:44:27;98771.34;;;22.59;57.61
84443;BME280;74681;0.000;0.000;2024-03-06T11:49:20;98764.25;;;22.58;57.74
84443;BME280;74681;0.000;0.000;2024-03-06T11:51:47;98765.88;;;22.59;57.46
84443;BME280;74681;0.000;0.000;2024-03-06T11:54:13;98753.31;;;22.58;57.64
84443;BME280;74681;0.000;0.000;2024-03-06T11:56:39;98758.78;;;22.58;57.50
84443;BME280;74681;0.000;0.000;2024-03-06T11:59:05;98751.38;;;22.59;57.47
84443;BME280;74681;0.000;0.000;2024-03-06T12:01:32;98765.06;;;22.59;57.50
84443;BME280;74681;0.000;0.000;2024-03-06T12:03:57;98749.78;;;22.58;57.41
84443;BME280;74681;0.000;0.000;2024-03-06T12:06:23;98753.31;;;22.58;57.64
84443;BME280;74681;0.000;0.000;2024-03-06T12:08:48;98754.13;;;22.59;57.67
84443;BME280;74681;0.000;0.000;2024-03-06T12:11:13;98753.31;;;22.58;57.67
84443;BME280;74681;0.000;0.000;2024-03-06T12:13:41;98756.84;;;22.59;57.42
84443;BME280;74681;0.000;0.000;2024-03-06T12:16:06;98750.56;;;22.58;57.58
84443;BME280;74681;0.000;0.000;2024-03-06T12:18:34;98747.03;;;22.58;57.50
84443;BME280;74681;0.000;0.000;2024-03-06T12:21:00;98750.56;;;22.58;57.40
84443;BME280;74681;0.000;0.000;2024-03-06T12:23:28;98745.09;;;22.58;57.68
84443;BME280;74681;0.000;0.000;2024-03-06T12:28:38;98739.63;;;22.58;57.43
84443;BME280;74681;0.000;0.000;2024-03-06T12:31:03;98742.34;;;22.58;57.37
84443;BME280;74681;0.000;0.000;2024-03-06T12:33:29;98744.81;;;22.60;57.52
84443;BME280;74681;0.000;0.000;2024-03-06T12:36:07;98734.16;;;22.58;57.33
84443;BME280;74681;0.000;0.000;2024-03-06T12:38:35;98737.69;;;22.59;57.47
84443;BME280;74681;0.000;0.000;2024-03-06T12:41:10;98736.88;;;22.58;57.28
84443;BME280;74681;0.000;0.000;2024-03-06T12:43:35;98730.63;;;22.58;57.52
84443;BME280;74681;0.000;0.000;2024-03-06T12:46:00;98727.88;;;22.58;57.51
84443;BME280;74681;0.000;0.000;2024-03-06T12:48:26;98732.22;;;22.59;57.47
84443;BME280;74681;0.000;0.000;2024-03-06T12:50:53;98724.00;;;22.59;57.22
84443;BME280;74681;0.000;0.000;2024-03-06T12:53:20;98724.84;;;22.59;57.45
84443;BME280;74681;0.000;0.000;2024-03-06T12:55:45;98724.00;;;22.59;57.22
84443;BME280;74681;0.000;0.000;2024-03-06T12:58:13;98726.75;;;22.59;57.28
84443;BME280;74681;0.000;0.000;2024-03-06T13:00:39;98727.56;;;22.59;57.50
84443;BME280;74681;0.000;0.000;2024-03-06T13:03:04;98721.28;;;22.59;57.12
84443;BME280;74681;0.000;0.000;2024-03-06T13:05:30;98724.00;;;22.59;57.35
84443;BME280;74681;0.000;0.000;2024-03-06T13:07:56;98721.81;;;22.61;57.21
84443;BME280;74681;0.000;0.000;2024-03-06T13:10:21;98715.75;;;22.64;56.38
84443;BME280;74681;0.000;0.000;2024-03-06T13:12:47;98711.91;;;22.65;56.27
84443;BME280;74681;0.000;0.000;2024-03-06T13:15:12;98717.09;;;22.67;56.72
84443;BME280;74681;0.000;0.000;2024-03-06T13:17:37;98717.09;;;22.67;56.86
84443;BME280;74681;0.000;0.000;2024-03-06T13:20:05;98717.38;;;22.65;56.87
84443;BME280;74681;0.000;0.000;2024-03-06T13:22:34;98718.19;;;22.66;56.70
84443;BME280;74681;0.000;0.000;2024-03-06T13:24:59;98699.03;;;22.66;56.53
84443;BME280;74681;0.000;0.000;2024-03-06T13:27:24;98700.94;;;22.65;56.41